Time;durP1;ratioP1;P1;durP2;ratioP2;P2;SDS_P1;SDS_P2;PMS_P1;PMS_P2;Temp;Humidity;BMP_temperature;BMP_pressure;BME280_temperature;BME280_humidity;BME280_pressure;Samples;Min_cycle;Max_cycle;Signal;HPM_P1;HPM_P2
2022/07/08 00:00:34;;;;;;;14.30;3.40;;;14.00;99.90;;;;;;5038420;28;20041;-71
2022/07/08 00:03:00;;;;;;;9.60;3.08;;;14.00;99.90;;;;;;5038368;28;20099;-70
2022/07/08 00:05:26;;;;;;;12.35;3.53;;;14.00;99.90;;;;;;5037709;28;20124;-70
2022/07/08 00:07:52;;;;;;;11.75;3.30;;;14.00;99.90;;;;;;5038769;28;20064;-70
2022/07/08 00:10:17;;;;;;;15.23;3.05;;;13.90;99.90;;;;;;5038373;28;20068;-70
2022/07/08 00:12:43;;;;;;;10.65;2.90;;;13.90;99.90;;;;;;5038265;28;20103;-69
2022/07/08 00:15:10;;;;;;;9.43;3.10;;;13.90;99.90;;;;;;5038379;28;20428;-70
2022/07/08 00:17:36;;;;;;;11.25;3.30;;;13.80;99.90;;;;;;5034738;28;20077;-70
2022/07/08 00:20:02;;;;;;;10.50;2.97;;;13.90;99.90;;;;;;5038022;28;20479;-71
2022/07/08 00:22:28;;;;;;;16.08;3.30;;;13.80;99.90;;;;;;5038138;28;20049;-71
2022/07/08 00:24:53;;;;;;;9.85;2.70;;;13.90;99.90;;;;;;5020697;28;20126;-71
2022/07/08 00:27:19;;;;;;;12.68;2.90;;;13.80;99.90;;;;;;5037615;28;20124;-70
2022/07/08 00:29:45;;;;;;;14.18;3.33;;;13.80;99.90;;;;;;5037502;28;20045;-71
2022/07/08 00:32:10;;;;;;;10.25;3.78;;;13.70;99.90;;;;;;5037990;28;20107;-70
2022/07/08 00:34:36;;;;;;;14.68;2.97;;;13.70;99.90;;;;;;5037890;28;20076;-70
2022/07/08 00:37:03;;;;;;;14.27;3.47;;;13.60;99.90;;;;;;5037244;28;20355;-71
2022/07/08 00:39:29;;;;;;;12.90;2.85;;;13.60;99.90;;;;;;5037784;28;20057;-70
2022/07/08 00:41:54;;;;;;;7.43;2.80;;;13.50;99.90;;;;;;5038038;28;20041;-70
2022/07/08 00:44:20;;;;;;;9.55;3.10;;;13.50;99.90;;;;;;5037832;28;20114;-71
2022/07/08 00:46:45;;;;;;;11.45;2.85;;;13.40;99.90;;;;;;5037032;28;20116;-70
2022/07/08 00:49:12;;;;;;;11.13;2.72;;;13.40;99.90;;;;;;5037266;28;20056;-71
2022/07/08 00:51:39;;;;;;;9.57;3.25;;;13.40;99.90;;;;;;5037726;28;20041;-70
2022/07/08 00:54:06;;;;;;;14.38;3.20;;;13.30;99.90;;;;;;5036501;28;20049;-71
2022/07/08 00:56:31;;;;;;;12.05;3.42;;;13.40;99.90;;;;;;5036874;28;20045;-72
2022/07/08 00:58:57;;;;;;;7.55;2.80;;;13.30;99.90;;;;;;5037662;28;20422;-71
2022/07/08 01:01:23;;;;;;;7.88;2.75;;;13.30;99.90;;;;;;5037366;28;20045;-71
2022/07/08 01:03:49;;;;;;;12.65;2.83;;;13.30;99.90;;;;;;5037407;28;20061;-71
2022/07/08 01:06:15;;;;;;;16.02;3.83;;;13.20;99.90;;;;;;5036455;28;20049;-70
2022/07/08 01:08:41;;;;;;;23.60;4.32;;;13.30;99.90;;;;;;5037355;28;20132;-72
2022/07/08 01:11:10;;;;;;;9.40;2.92;;;13.20;99.90;;;;;;5037480;28;20037;-70
2022/07/08 01:13:37;;;;;;;15.07;3.45;;;13.10;99.90;;;;;;5037189;28;20367;-71
2022/07/08 01:16:03;;;;;;;9.73;3.10;;;13.20;99.90;;;;;;5036543;28;20053;-70
2022/07/08 01:18:30;;;;;;;11.48;2.95;;;13.20;99.90;;;;;;5037138;28;20053;-71
2022/07/08 01:20:57;;;;;;;12.13;3.00;;;13.00;99.90;;;;;;5037178;28;20072;-70
2022/07/08 01:23:23;;;;;;;8.90;2.80;;;13.10;99.90;;;;;;5037196;28;20410;-70
2022/07/08 01:25:49;;;;;;;14.70;3.03;;;13.10;99.90;;;;;;5036574;28;20042;-70
2022/07/08 01:28:15;;;;;;;12.18;2.92;;;13.10;99.90;;;;;;5037009;28;20364;-70
2022/07/08 01:30:42;;;;;;;14.57;3.50;;;13.00;99.90;;;;;;5035624;28;20472;-72
2022/07/08 01:33:08;;;;;;;9.68;2.75;;;13.10;99.90;;;;;;5037053;28;20060;-70
2022/07/08 01:35:33;;;;;;;14.50;4.35;;;13.00;99.90;;;;;;5036107;28;20037;-71
2022/07/08 01:37:59;;;;;;;16.02;4.15;;;13.00;99.90;;;;;;5036837;28;20475;-71
2022/07/08 01:40:24;;;;;;;13.00;3.03;;;13.00;99.90;;;;;;5036889;28;20048;-71
2022/07/08 01:42:50;;;;;;;11.20;3.92;;;12.90;99.90;;;;;;5037049;28;20045;-71
2022/07/08 01:45:16;;;;;;;18.58;5.22;;;12.90;99.90;;;;;;5036545;28;20450;-71
2022/07/08 01:47:41;;;;;;;13.68;3.20;;;12.80;99.90;;;;;;5037618;28;20053;-70
2022/07/08 01:50:07;;;;;;;14.40;3.53;;;12.80;99.90;;;;;;5056418;28;20041;-71
2022/07/08 01:52:33;;;;;;;14.30;3.92;;;12.70;99.90;;;;;;5056438;28;20049;-70
2022/07/08 01:54:59;;;;;;;10.35;3.70;;;12.70;99.90;;;;;;5048283;28;20060;-71
2022/07/08 01:57:25;;;;;;;13.68;3.50;;;12.70;99.90;;;;;;5036350;28;20061;-69
2022/07/08 01:59:51;;;;;;;14.52;3.97;;;12.70;99.90;;;;;;5036469;28;20049;-70
2022/07/08 02:02:19;;;;;;;7.90;3.13;;;12.70;99.90;;;;;;5036169;28;20056;-70
2022/07/08 02:04:45;;;;;;;9.98;3.40;;;12.70;99.90;;;;;;5035207;28;20085;-71
2022/07/08 02:07:11;;;;;;;11.18;3.40;;;12.60;99.90;;;;;;5036282;28;20050;-70
2022/07/08 02:09:38;;;;;;;12.38;3.50;;;12.60;99.90;;;;;;5036306;28;20152;-70
2022/07/08 02:12:20;;;;;;;9.15;3.55;;;12.60;99.90;;;;;;5036068;28;20120;-71
2022/07/08 02:15:01;;;;;;;17.00;4.53;;;12.50;99.90;;;;;;5034673;28;20088;-70
2022/07/08 02:17:28;;;;;;;12.95;3.50;;;12.60;99.90;;;;;;5035650;28;20049;-70
2022/07/08 02:19:54;;;;;;;16.27;4.32;;;12.60;99.90;;;;;;5036097;28;20046;-70
2022/07/08 02:22:20;;;;;;;15.05;3.78;;;12.60;99.90;;;;;;5035593;28;20042;-71
2022/07/08 02:24:47;;;;;;;18.38;3.85;;;12.50;99.90;;;;;;5035067;28;20052;-70
2022/07/08 02:27:13;;;;;;;13.07;4.07;;;12.60;99.90;;;;;;5035770;28;20046;-71
2022/07/08 02:29:39;;;;;;;11.02;3.45;;;12.60;99.90;;;;;;5035741;28;20052;-71
2022/07/08 02:32:05;;;;;;;18.77;4.07;;;12.60;99.90;;;;;;5035780;28;20050;-70
2022/07/08 02:34:31;;;;;;;18.30;4.15;;;12.50;99.90;;;;;;5034808;28;20376;-70
2022/07/08 02:36:56;;;;;;;11.82;3.50;;;12.50;99.90;;;;;;5035720;28;20059;-69
2022/07/08 02:39:22;;;;;;;15.57;3.70;;;12.50;99.90;;;;;;5035571;28;20072;-71
2022/07/08 02:41:48;;;;;;;10.75;3.42;;;12.50;99.90;;;;;;5035522;28;20045;-70
2022/07/08 02:44:13;;;;;;;16.90;3.50;;;12.50;99.90;;;;;;5034434;28;20095;-70
2022/07/08 02:46:41;;;;;;;11.95;3.72;;;12.50;99.90;;;;;;5035549;28;20049;-70
2022/07/08 02:49:11;;;;;;;20.58;4.30;;;12.60;99.90;;;;;;5035428;28;20455;-70
2022/07/08 02:51:37;;;;;;;18.25;4.03;;;12.50;99.90;;;;;;5035512;28;20041;-71
2022/07/08 02:54:04;;;;;;;20.30;5.07;;;12.50;99.90;;;;;;5034780;28;20050;-71
2022/07/08 02:56:33;;;;;;;15.95;3.50;;;12.50;99.90;;;;;;5035292;28;20041;-70
2022/07/08 02:58:59;;;;;;;13.80;3.67;;;12.50;99.90;;;;;;5035636;28;20050;-71
2022/07/08 03:01:25;;;;;;;11.52;4.20;;;12.60;99.90;;;;;;5035426;28;20093;-70
2022/07/08 03:03:51;;;;;;;17.45;3.95;;;12.60;99.90;;;;;;5034468;28;20486;-70
2022/07/08 03:06:17;;;;;;;14.48;4.03;;;12.60;99.90;;;;;;5035211;28;20360;-71
2022/07/08 03:08:42;;;;;;;14.57;3.40;;;12.60;99.90;;;;;;5017552;28;20053;-71
2022/07/08 03:11:08;;;;;;;14.85;4.47;;;12.60;99.90;;;;;;5034995;28;20053;-71
2022/07/08 03:13:36;;;;;;;13.15;4.25;;;12.70;99.90;;;;;;5034235;28;20363;-71
2022/07/08 03:16:03;;;;;;;14.93;4.07;;;12.70;99.90;;;;;;5034937;28;20438;-71
2022/07/08 03:18:31;;;;;;;12.85;3.90;;;12.70;99.90;;;;;;5034809;28;20064;-71
2022/07/08 03:20:56;;;;;;;17.27;4.20;;;12.80;99.90;;;;;;5034992;28;20045;-70
2022/07/08 03:23:22;;;;;;;14.93;3.60;;;12.90;99.90;;;;;;5034391;28;20038;-70
2022/07/08 03:25:48;;;;;;;16.73;3.47;;;13.00;99.90;;;;;;5034934;28;20140;-70
2022/07/08 03:28:13;;;;;;;18.58;3.58;;;13.00;99.90;;;;;;5034767;28;20443;-71
2022/07/08 03:30:40;;;;;;;12.20;3.42;;;13.10;99.90;;;;;;5034737;28;20090;-70
2022/07/08 03:33:05;;;;;;;21.17;4.53;;;13.00;99.90;;;;;;5034174;28;20057;-70
2022/07/08 03:35:31;;;;;;;18.25;3.40;;;13.10;99.90;;;;;;5034812;28;20202;-70
2022/07/08 03:37:56;;;;;;;12.63;3.50;;;13.20;99.90;;;;;;5034946;28;20387;-71
2022/07/08 03:43:06;;;;;;;16.75;3.55;;;13.20;99.90;;;;;;5034045;28;20049;-70
2022/07/08 03:45:32;;;;;;;15.15;4.75;;;13.30;99.90;;;;;;5034917;28;20057;-72
2022/07/08 03:48:00;;;;;;;17.02;4.70;;;13.40;99.90;;;;;;5034926;28;20088;-70
2022/07/08 03:50:26;;;;;;;15.65;4.00;;;13.50;99.90;;;;;;5034879;28;20068;-70
2022/07/08 03:52:52;;;;;;;13.57;3.95;;;13.40;99.90;;;;;;5034233;28;20049;-71
2022/07/08 03:55:20;;;;;;;17.02;3.50;;;13.50;99.90;;;;;;5034466;28;20141;-70
2022/07/08 03:57:45;;;;;;;13.90;3.10;;;13.70;99.90;;;;;;5034682;28;20088;-70
2022/07/08 04:00:11;;;;;;;10.90;3.33;;;13.70;99.90;;;;;;5034739;28;20077;-70
2022/07/08 04:02:37;;;;;;;13.88;3.42;;;13.80;99.90;;;;;;5034615;28;20494;-70
2022/07/08 04:05:03;;;;;;;21.27;3.65;;;13.70;99.90;;;;;;5033800;28;20081;-70
2022/07/08 04:07:28;;;;;;;14.60;3.95;;;14.00;99.90;;;;;;5034372;28;20085;-70
2022/07/08 04:09:54;;;;;;;15.18;4.18;;;13.90;99.90;;;;;;5034817;28;20045;-71
2022/07/08 04:12:19;;;;;;;13.73;3.70;;;14.10;99.90;;;;;;5034560;28;20053;-70
2022/07/08 04:14:45;;;;;;;11.48;3.60;;;14.10;99.90;;;;;;5033659;28;20041;-70
2022/07/08 04:17:10;;;;;;;12.65;3.38;;;14.10;99.90;;;;;;5017208;28;20133;-70
2022/07/08 04:19:36;;;;;;;12.57;4.18;;;14.20;99.90;;;;;;5034543;28;20060;-72
2022/07/08 04:22:02;;;;;;;16.05;4.03;;;14.20;99.90;;;;;;5034427;28;20048;-71
2022/07/08 04:24:27;;;;;;;15.98;3.75;;;14.40;99.90;;;;;;5033730;28;20095;-69
2022/07/08 04:26:53;;;;;;;17.35;3.22;;;14.30;99.90;;;;;;5034384;28;20132;-71
2022/07/08 04:29:18;;;;;;;15.13;3.50;;;14.30;99.90;;;;;;5036701;28;20043;-71
2022/07/08 04:31:44;;;;;;;23.13;5.28;;;14.40;99.90;;;;;;5038048;28;20050;-71
2022/07/08 04:34:10;;;;;;;15.45;3.38;;;14.50;99.90;;;;;;5038020;28;20103;-71
2022/07/08 04:36:35;;;;;;;13.43;3.20;;;14.50;99.90;;;;;;5037967;28;20046;-71
2022/07/08 04:39:01;;;;;;;12.63;3.40;;;14.50;99.90;;;;;;5037129;28;20124;-71
2022/07/08 04:41:26;;;;;;;18.20;4.72;;;14.60;99.90;;;;;;5038091;28;20073;-71
2022/07/08 04:43:52;;;;;;;11.57;3.88;;;14.60;99.90;;;;;;5037726;28;20099;-71
2022/07/08 04:46:17;;;;;;;18.50;4.43;;;14.60;99.90;;;;;;5037846;28;20073;-70
2022/07/08 04:48:43;;;;;;;12.70;3.30;;;14.70;99.90;;;;;;5036604;28;20053;-70
2022/07/08 04:51:09;;;;;;;20.63;3.75;;;14.80;99.90;;;;;;5037422;28;20045;-70
2022/07/08 04:53:34;;;;;;;16.20;3.63;;;14.80;99.90;;;;;;5037676;28;20114;-71
2022/07/08 04:56:00;;;;;;;16.42;3.92;;;14.90;99.90;;;;;;5037585;28;20077;-71
2022/07/08 04:58:26;;;;;;;15.18;3.83;;;15.00;99.90;;;;;;5036757;28;20406;-70
2022/07/08 05:00:51;;;;;;;21.88;4.47;;;15.00;99.90;;;;;;5036451;28;20053;-71
2022/07/08 05:03:17;;;;;;;14.75;4.53;;;15.00;99.90;;;;;;5018946;28;20034;-70
2022/07/08 05:05:42;;;;;;;16.58;4.30;;;14.90;99.90;;;;;;5037489;28;20120;-71
2022/07/08 05:08:08;;;;;;;15.98;3.88;;;15.00;99.90;;;;;;5037290;28;20041;-72
2022/07/08 05:10:34;;;;;;;13.15;3.67;;;15.10;99.90;;;;;;5037264;28;20045;-72
2022/07/08 05:12:59;;;;;;;11.15;3.20;;;15.10;99.90;;;;;;5036691;28;20041;-71
2022/07/08 05:15:26;;;;;;;17.42;4.22;;;15.10;99.90;;;;;;5037189;28;20041;-71
2022/07/08 05:17:52;;;;;;;17.58;3.88;;;15.20;99.90;;;;;;5037120;28;20042;-71
2022/07/08 05:20:18;;;;;;;12.60;3.58;;;15.20;99.90;;;;;;5037113;28;20417;-72
2022/07/08 05:22:45;;;;;;;14.55;3.92;;;15.30;99.90;;;;;;5037089;28;20077;-70
2022/07/08 05:25:11;;;;;;;20.90;4.15;;;15.30;99.90;;;;;;5036090;28;20482;-70
2022/07/08 05:27:37;;;;;;;15.05;4.10;;;15.20;99.90;;;;;;5019753;28;20375;-70
2022/07/08 05:30:04;;;;;;;16.13;3.47;;;15.40;99.90;;;;;;5036661;28;20128;-71
2022/07/08 05:32:30;;;;;;;16.40;3.85;;;15.30;99.90;;;;;;5036820;28;20053;-70
2022/07/08 05:34:55;;;;;;;11.43;3.67;;;15.30;99.90;;;;;;5036171;28;20068;-70
2022/07/08 05:37:21;;;;;;;11.88;4.15;;;15.50;99.90;;;;;;5036770;28;20045;-70
2022/07/08 05:39:47;;;;;;;18.98;5.30;;;15.50;99.90;;;;;;5034355;28;20119;-71
2022/07/08 05:42:12;;;;;;;14.73;3.92;;;15.60;99.90;;;;;;5019424;28;20132;-71
2022/07/08 05:44:39;;;;;;;15.95;4.80;;;15.60;99.90;;;;;;5036742;28;20059;-70
2022/07/08 05:47:07;;;;;;;9.20;3.90;;;15.70;99.90;;;;;;5036505;28;20041;-71
2022/07/08 05:49:34;;;;;;;13.60;5.38;;;15.70;99.90;;;;;;5034877;28;20101;-70
2022/07/08 05:52:00;;;;;;;15.23;3.90;;;15.70;99.90;;;;;;5036212;28;20367;-70
2022/07/08 05:54:25;;;;;;;13.40;4.30;;;15.80;99.90;;;;;;5036734;28;20042;-71
2022/07/08 05:56:51;;;;;;;18.60;4.45;;;15.70;99.90;;;;;;5036492;28;20053;-69
2022/07/08 05:59:16;;;;;;;17.05;4.70;;;15.70;99.90;;;;;;5035909;28;20104;-70
2022/07/08 06:01:42;;;;;;;12.05;3.67;;;15.80;99.90;;;;;;5036122;28;20049;-70
2022/07/08 06:04:07;;;;;;;10.60;3.85;;;15.90;99.90;;;;;;5036208;28;20108;-70
2022/07/08 06:06:33;;;;;;;14.45;4.07;;;16.00;99.90;;;;;;5034853;28;20045;-71
2022/07/08 06:08:58;;;;;;;21.52;4.50;;;16.00;99.90;;;;;;5036229;28;20046;-71
2022/07/08 06:11:24;;;;;;;17.80;4.82;;;16.10;99.90;;;;;;5036286;28;20045;-71
2022/07/08 06:13:50;;;;;;;13.40;3.90;;;16.20;99.90;;;;;;5036385;28;20514;-70
2022/07/08 06:16:15;;;;;;;11.98;3.50;;;16.30;99.90;;;;;;5017722;28;20478;-70
2022/07/08 06:18:41;;;;;;;17.50;4.03;;;16.30;99.90;;;;;;5035969;28;20116;-70
2022/07/08 06:21:07;;;;;;;14.43;3.88;;;16.50;99.90;;;;;;5035917;28;20041;-71
2022/07/08 06:23:34;;;;;;;13.35;3.65;;;16.30;99.90;;;;;;5035861;28;20038;-70
2022/07/08 06:26:00;;;;;;;12.63;3.47;;;16.40;99.90;;;;;;5035160;28;20061;-71
2022/07/08 06:28:26;;;;;;;13.82;3.35;;;16.30;99.90;;;;;;5035897;28;20038;-72
2022/07/08 06:30:51;;;;;;;14.38;3.92;;;16.40;99.90;;;;;;5034439;28;20045;-71
2022/07/08 06:33:17;;;;;;;8.75;3.45;;;16.40;99.90;;;;;;5035682;28;20052;-73
2022/07/08 06:35:43;;;;;;;14.57;3.35;;;16.40;99.90;;;;;;5034920;28;20053;-72
2022/07/08 06:38:08;;;;;;;14.18;3.60;;;16.50;99.90;;;;;;5035464;28;20056;-71
2022/07/08 06:40:34;;;;;;;15.93;4.20;;;16.50;99.90;;;;;;5035861;28;20056;-76
2022/07/08 06:43:00;;;;;;;20.30;5.30;;;16.50;99.90;;;;;;5035635;28;20052;-74
2022/07/08 06:45:26;;;;;;;11.23;4.68;;;16.60;99.90;;;;;;5034617;28;20045;-76
2022/07/08 06:47:51;;;;;;;17.58;3.70;;;16.70;99.90;;;;;;5036140;28;20045;-71
2022/07/08 06:50:17;;;;;;;14.57;3.95;;;16.70;99.90;;;;;;5035250;28;20045;-73
2022/07/08 06:52:42;;;;;;;13.18;4.57;;;16.80;99.90;;;;;;5034688;28;20152;-74
2022/07/08 06:55:08;;;;;;;13.23;3.95;;;16.70;99.90;;;;;;5034320;28;20456;-74
2022/07/08 06:57:34;;;;;;;18.23;4.28;;;16.80;99.90;;;;;;5015600;28;20072;-71
2022/07/08 07:00:00;;;;;;;15.05;4.45;;;16.80;99.90;;;;;;5020897;28;20511;-72
2022/07/08 07:02:26;;;;;;;14.13;3.20;;;16.80;99.90;;;;;;5034914;28;20038;-70
2022/07/08 07:04:52;;;;;;;15.80;3.75;;;16.80;99.90;;;;;;5035160;28;20059;-71
2022/07/08 07:07:17;;;;;;;17.92;3.83;;;16.80;99.90;;;;;;5035241;28;20037;-70
2022/07/08 07:09:43;;;;;;;10.52;3.58;;;16.90;99.90;;;;;;5034496;28;20440;-71
2022/07/08 07:12:09;;;;;;;10.40;3.60;;;16.90;99.90;;;;;;5035291;28;20124;-70
2022/07/08 07:14:35;;;;;;;16.92;4.50;;;16.80;99.90;;;;;;5034921;28;20080;-71
2022/07/08 07:17:01;;;;;;;13.82;4.00;;;16.90;99.90;;;;;;5035107;28;20083;-71
2022/07/08 07:19:28;;;;;;;11.95;3.65;;;16.90;99.90;;;;;;5034126;28;20052;-73
2022/07/08 07:21:54;;;;;;;14.35;4.45;;;17.20;99.90;;;;;;5035067;28;20042;-74
2022/07/08 07:24:20;;;;;;;17.75;3.95;;;17.20;99.90;;;;;;5034887;28;20452;-73
2022/07/08 07:26:47;;;;;;;11.85;3.80;;;17.20;99.90;;;;;;5034964;28;20042;-71
2022/07/08 07:29:13;;;;;;;14.07;3.92;;;17.00;99.90;;;;;;5034018;28;20048;-71
2022/07/08 07:31:38;;;;;;;11.73;3.42;;;17.20;99.90;;;;;;5034542;28;20507;-74
2022/07/08 07:34:04;;;;;;;14.02;3.72;;;17.20;99.90;;;;;;5016972;28;20052;-73
2022/07/08 07:36:30;;;;;;;12.13;3.42;;;17.10;99.90;;;;;;5034798;28;20132;-73
2022/07/08 07:38:56;;;;;;;13.10;4.35;;;17.30;99.90;;;;;;5033475;28;20055;-71
2022/07/08 07:41:21;;;;;;;8.73;3.80;;;17.30;99.90;;;;;;5033188;28;20380;-70
2022/07/08 07:43:47;;;;;;;10.57;3.53;;;17.50;99.90;;;;;;5034180;28;20450;-72
2022/07/08 07:46:13;;;;;;;13.57;3.80;;;17.50;99.90;;;;;;5034529;28;20510;-71
2022/07/08 07:48:38;;;;;;;13.38;3.70;;;17.30;99.90;;;;;;5034667;28;20041;-74
2022/07/08 07:51:04;;;;;;;13.82;3.90;;;17.40;99.90;;;;;;5033744;28;20073;-71
2022/07/08 07:53:30;;;;;;;11.95;3.38;;;17.50;99.90;;;;;;5034735;28;20107;-74
2022/07/08 07:55:57;;;;;;;16.30;3.33;;;17.50;99.90;;;;;;5034465;28;20056;-72
2022/07/08 07:58:23;;;;;;;16.50;3.45;;;17.50;99.90;;;;;;5034571;28;20050;-73
2022/07/08 08:00:49;;;;;;;17.80;4.18;;;17.60;99.90;;;;;;5033829;28;20045;-75
2022/07/08 08:03:15;;;;;;;12.32;3.20;;;17.60;99.90;;;;;;5035768;28;20064;-73
2022/07/08 08:05:42;;;;;;;8.88;3.67;;;17.70;99.90;;;;;;5038954;28;20048;-73
2022/07/08 08:08:08;;;;;;;14.48;4.25;;;17.70;99.90;;;;;;5038491;28;20041;-72
2022/07/08 08:10:34;;;;;;;13.80;3.78;;;17.70;99.90;;;;;;5037699;28;20094;-71
2022/07/08 08:12:59;;;;;;;12.68;3.53;;;17.80;99.90;;;;;;5038451;28;20124;-72
2022/07/08 08:15:29;;;;;;;9.20;3.80;;;18.00;99.90;;;;;;5037155;28;20470;-73
2022/07/08 08:17:56;;;;;;;10.68;3.53;;;18.00;99.90;;;;;;5038431;28;20045;-70
2022/07/08 08:20:24;;;;;;;9.02;3.35;;;17.90;99.90;;;;;;5037720;28;20151;-74
2022/07/08 08:22:51;;;;;;;9.75;2.70;;;17.90;99.90;;;;;;5018631;28;20081;-73
2022/07/08 08:25:17;;;;;;;11.43;3.38;;;18.10;99.90;;;;;;5018564;28;20038;-71
2022/07/08 08:27:43;;;;;;;10.30;3.22;;;18.10;99.90;;;;;;5021112;28;20510;-71
2022/07/08 08:30:09;;;;;;;8.18;2.90;;;18.20;99.90;;;;;;5037875;28;20085;-73
2022/07/08 08:32:35;;;;;;;8.88;3.13;;;18.20;99.90;;;;;;5038087;28;20053;-74
2022/07/08 08:35:01;;;;;;;9.10;3.13;;;18.20;99.90;;;;;;5023025;28;20046;-74
2022/07/08 08:37:27;;;;;;;8.77;3.13;;;18.40;99.90;;;;;;5018132;28;20065;-75
2022/07/08 08:39:53;;;;;;;9.25;3.25;;;18.30;99.90;;;;;;5018292;28;20054;-75
2022/07/08 08:42:19;;;;;;;8.20;2.63;;;18.40;99.90;;;;;;5017997;28;20444;-75
2022/07/08 08:44:49;;;;;;;6.60;2.85;;;18.20;99.90;;;;;;5020996;28;20052;-75
2022/07/08 08:47:16;;;;;;;10.05;2.95;;;18.20;99.90;;;;;;5037766;28;20046;-75
2022/07/08 08:49:42;;;;;;;10.27;3.05;;;18.40;99.90;;;;;;5037667;28;20045;-75
2022/07/08 08:52:10;;;;;;;8.85;2.90;;;18.40;99.90;;;;;;5037908;28;20051;-75
2022/07/08 08:54:37;;;;;;;6.43;3.00;;;18.30;99.90;;;;;;5036957;28;21466;-72
2022/07/08 08:57:04;;;;;;;7.65;2.53;;;18.40;99.90;;;;;;5037646;28;20041;-73
2022/07/08 08:59:33;;;;;;;6.35;2.22;;;18.50;99.90;;;;;;5037606;28;20391;-74
2022/07/08 09:02:00;;;;;;;9.50;3.10;;;18.50;99.90;;;;;;5020217;28;20064;-70
2022/07/08 09:04:31;;;;;;;8.00;2.92;;;18.50;99.90;;;;;;5036213;28;20120;-71
2022/07/08 09:06:59;;;;;;;7.05;2.40;;;18.50;99.90;;;;;;5019796;28;20041;-77
2022/07/08 09:09:25;;;;;;;8.13;2.40;;;18.60;99.90;;;;;;5036310;28;20045;-71
2022/07/08 09:11:51;;;;;;;9.55;2.42;;;18.70;99.90;;;;;;5027354;28;20041;-71
2022/07/08 09:14:20;;;;;;;13.65;2.90;;;18.60;99.90;;;;;;5036123;28;20045;-70
2022/07/08 09:17:06;;;;;;;9.73;2.70;;;18.70;99.90;;;;;;5027323;28;20402;-72
2022/07/08 09:19:32;;;;;;;6.97;2.63;;;18.80;99.90;;;;;;5025070;28;20053;-72
2022/07/08 09:21:57;;;;;;;9.13;2.72;;;18.70;99.90;;;;;;5031808;28;20046;-72
2022/07/08 09:24:27;;;;;;;7.82;2.67;;;18.80;99.90;;;;;;5036554;28;20045;-72
2022/07/08 09:26:56;;;;;;;8.13;2.80;;;19.00;99.90;;;;;;5019933;28;20483;-72
2022/07/08 09:29:22;;;;;;;7.55;2.55;;;19.10;99.90;;;;;;5028255;28;20052;-70
2022/07/08 09:31:48;;;;;;;7.65;2.78;;;18.90;99.90;;;;;;5034420;28;20103;-72
2022/07/08 09:34:16;;;;;;;10.13;3.30;;;19.10;99.90;;;;;;5036516;28;20046;-70
2022/07/08 09:36:46;;;;;;;8.57;3.10;;;19.20;99.90;;;;;;5032409;28;20061;-71
2022/07/08 09:39:28;;;;;;;12.07;3.78;;;19.20;99.90;;;;;;5014018;28;20081;-72
2022/07/08 09:41:54;;;;;;;11.82;3.70;;;19.30;99.90;;;;;;5018752;28;20104;-70
2022/07/08 09:44:23;;;;;;;13.73;3.70;;;19.30;99.90;;;;;;5030346;28;20121;-70
2022/07/08 09:46:51;;;;;;;11.40;3.42;;;19.50;99.90;;;;;;5019871;28;20369;-70
2022/07/08 09:49:30;;;;;;;9.35;3.00;;;19.60;99.90;;;;;;5031054;28;20157;-70
2022/07/08 09:51:57;;;;;;;14.30;3.70;;;19.50;99.90;;;;;;5026065;28;20104;-70
2022/07/08 09:54:23;;;;;;;10.57;3.72;;;19.30;99.90;;;;;;5021945;28;20448;-70
2022/07/08 09:56:59;;;;;;;9.65;4.50;;;19.30;99.90;;;;;;5032362;28;20081;-70
2022/07/08 09:59:26;;;;;;;11.35;4.00;;;19.20;99.90;;;;;;5022583;28;20029;-70
2022/07/08 10:01:52;;;;;;;9.52;3.50;;;19.30;99.90;;;;;;5032210;28;20067;-71
2022/07/08 10:04:24;;;;;;;14.50;4.22;;;19.50;99.90;;;;;;5034077;28;20053;-69
2022/07/08 10:06:55;;;;;;;14.60;5.40;;;19.50;99.90;;;;;;5032419;28;20482;-70
2022/07/08 10:09:22;;;;;;;12.75;4.38;;;19.60;99.90;;;;;;5027769;28;20041;-70
2022/07/08 10:11:49;;;;;;;9.20;4.18;;;19.50;99.90;;;;;;5035499;28;20475;-70
2022/07/08 10:14:16;;;;;;;11.90;4.63;;;19.80;99.90;;;;;;5022322;28;20054;-70
2022/07/08 10:16:45;;;;;;;11.65;4.47;;;19.60;99.90;;;;;;5029976;28;20060;-70
2022/07/08 10:19:17;;;;;;;10.45;4.03;;;19.60;99.90;;;;;;5020133;28;20037;-70
2022/07/08 10:21:50;;;;;;;15.30;4.20;;;19.90;99.90;;;;;;5026894;28;20469;-70
2022/07/08 10:24:21;;;;;;;10.68;3.60;;;19.70;99.90;;;;;;5029284;28;20053;-70
2022/07/08 10:26:47;;;;;;;13.38;4.10;;;19.70;99.90;;;;;;5028938;28;20041;-72
2022/07/08 10:29:15;;;;;;;11.38;3.65;;;19.90;99.90;;;;;;5030394;28;20183;-69
2022/07/08 10:31:46;;;;;;;9.45;4.78;;;20.00;99.90;;;;;;5026970;28;20064;-69
2022/07/08 10:34:19;;;;;;;15.20;4.95;;;20.10;99.90;;;;;;5028292;28;20049;-70
2022/07/08 10:36:50;;;;;;;14.40;5.55;;;19.70;99.90;;;;;;5033251;28;20464;-70
2022/07/08 10:39:31;;;;;;;8.75;4.50;;;19.60;99.90;;;;;;5020027;28;20046;-70
2022/07/08 10:42:01;;;;;;;17.88;4.80;;;19.40;99.90;;;;;;5024563;28;20361;-70
2022/07/08 10:44:47;;;;;;;12.43;4.97;;;19.30;99.90;;;;;;5030000;28;20045;-70
2022/07/08 10:47:15;;;;;;;14.90;5.35;;;19.50;99.90;;;;;;5030496;28;20044;-70
2022/07/08 10:49:41;;;;;;;13.27;4.50;;;19.50;99.90;;;;;;5023605;28;20068;-70
2022/07/08 10:52:07;;;;;;;11.57;4.22;;;19.50;99.90;;;;;;5022962;28;20046;-70
2022/07/08 10:54:37;;;;;;;12.60;4.47;;;19.70;99.90;;;;;;5030896;28;20052;-70
2022/07/08 10:57:08;;;;;;;14.70;5.22;;;19.80;99.90;;;;;;5031255;28;20046;-71
2022/07/08 10:59:35;;;;;;;12.80;5.40;;;19.90;99.90;;;;;;5020370;28;20367;-70
2022/07/08 11:02:03;;;;;;;15.38;5.80;;;19.90;99.90;;;;;;5035203;28;20064;-71
2022/07/08 11:04:35;;;;;;;14.13;5.50;;;19.80;99.90;;;;;;5035161;28;20349;-69
2022/07/08 11:07:28;;;;;;;11.13;5.43;;;19.90;99.90;;;;;;5019782;28;20184;-70
2022/07/08 11:10:11;;;;;;;13.98;5.68;;;20.10;99.90;;;;;;5015419;28;20080;-69
2022/07/08 11:12:40;;;;;;;18.13;5.93;;;20.00;99.90;;;;;;5015330;28;20057;-70
2022/07/08 11:15:09;;;;;;;13.63;5.38;;;20.00;99.90;;;;;;5018271;28;20037;-69
2022/07/08 11:17:37;;;;;;;12.98;5.57;;;20.10;99.90;;;;;;5034737;28;20164;-69
2022/07/08 11:20:11;;;;;;;14.05;5.82;;;20.10;99.90;;;;;;5035008;28;20463;-68
2022/07/08 11:22:39;;;;;;;14.30;5.10;;;20.20;99.90;;;;;;5034860;28;20037;-69
2022/07/08 11:25:06;;;;;;;14.75;6.07;;;20.30;99.90;;;;;;5033957;28;20045;-69
2022/07/08 11:27:33;;;;;;;16.65;5.30;;;20.30;99.90;;;;;;5034806;28;20129;-69
2022/07/08 11:30:01;;;;;;;13.40;5.20;;;20.40;99.90;;;;;;5029757;28;20077;-69
2022/07/08 11:32:27;;;;;;;15.57;6.18;;;20.60;99.90;;;;;;5034331;28;20049;-68
2022/07/08 11:34:55;;;;;;;13.88;5.85;;;20.80;99.90;;;;;;5016264;28;20106;-69
2022/07/08 11:37:21;;;;;;;15.10;5.93;;;20.90;99.90;;;;;;5035285;28;20034;-69
2022/07/08 11:39:48;;;;;;;16.85;5.75;;;20.70;99.90;;;;;;5033003;28;20152;-69
2022/07/08 11:42:15;;;;;;;16.13;6.50;;;20.80;99.90;;;;;;5032108;28;20095;-69
2022/07/08 11:44:42;;;;;;;18.85;5.25;;;20.90;99.90;;;;;;5040864;28;20041;-69
2022/07/08 11:47:10;;;;;;;12.68;4.70;;;21.00;99.90;;;;;;5038173;28;20045;-69
2022/07/08 11:49:41;;;;;;;11.38;4.70;;;21.00;99.90;;;;;;5026920;28;20120;-70
2022/07/08 11:52:06;;;;;;;14.98;5.63;;;21.00;99.90;;;;;;5030554;28;20046;-70
2022/07/08 11:54:32;;;;;;;12.35;5.80;;;21.10;99.90;;;;;;5034676;28;20359;-70
2022/07/08 11:57:00;;;;;;;14.60;5.97;;;21.10;99.90;;;;;;5040146;28;20041;-70
2022/07/08 11:59:27;;;;;;;17.70;5.43;;;21.10;99.90;;;;;;5036456;28;20057;-70
2022/07/08 12:01:56;;;;;;;11.80;5.75;;;21.10;99.90;;;;;;5028779;28;20107;-69
2022/07/08 12:04:22;;;;;;;13.40;6.38;;;21.30;99.90;;;;;;5028722;28;20049;-69
2022/07/08 12:06:54;;;;;;;15.82;5.28;;;21.30;99.90;;;;;;5035919;28;20076;-70
2022/07/08 12:09:22;;;;;;;12.50;4.45;;;21.20;99.90;;;;;;5024729;28;20041;-69
2022/07/08 12:11:49;;;;;;;10.05;5.07;;;21.20;99.90;;;;;;5033147;28;20460;-70
2022/07/08 12:14:16;;;;;;;11.88;4.43;;;21.10;99.90;;;;;;5021179;28;20077;-69
2022/07/08 12:16:49;;;;;;;14.00;4.90;;;21.40;99.90;;;;;;5035244;28;20430;-69
2022/07/08 12:19:33;;;;;;;11.82;4.38;;;21.50;99.90;;;;;;5040955;28;20045;-68
2022/07/08 12:22:01;;;;;;;13.20;4.80;;;21.50;99.90;;;;;;5040810;28;20060;-69
2022/07/08 12:24:31;;;;;;;13.55;5.72;;;21.80;99.90;;;;;;5040953;28;20041;-70
2022/07/08 12:26:59;;;;;;;14.57;5.63;;;22.00;99.90;;;;;;5040158;28;20080;-73
2022/07/08 12:29:26;;;;;;;11.65;4.82;;;21.60;99.90;;;;;;5040753;28;20337;-71
2022/07/08 12:31:52;;;;;;;15.63;5.00;;;22.00;99.90;;;;;;5040121;28;20073;-71
2022/07/08 12:34:20;;;;;;;11.10;5.43;;;21.50;99.90;;;;;;5032744;28;20433;-71
2022/07/08 12:36:47;;;;;;;10.55;4.35;;;21.40;99.90;;;;;;5034547;28;20059;-71
2022/07/08 12:39:22;;;;;;;13.55;5.53;;;21.60;99.90;;;;;;5038920;28;20394;-71